TEB weather

Teterboro Airport
Teterboro, New Jersey, United States

Public forecast

Using degrees Fahrenheit for public forecast. Weather courtesy of forecast.io.

Current aviation weather report (METAR) for Teterboro Airport

Retrieved 2019/12/11 20:51 UTC (1 hour ago):

KTEB 112051Z 25008KT 210V270 10SM SCT027 03/M02 A3027 RMK AO2 SLP249 T00281022 53004

Aviation forecast (TAF) for Teterboro Airport

Retrieved 2019/12/11 18:30 UTC (3 hours ago):

TAF KTEB 111727Z 1118/1224 VRB03KT P6SM SCT020 BKN050 FM112000 26007KT P6SM BKN040 FM112200 27011G18KT P6SM SCT040 FM120300 30011KT P6SM SKC FM120800 33006KT P6SM SKC FM121400 35004KT P6SM FEW250 FM121800 VRB03KT P6SM SCT250